PWSweather.com
Personal Weather Stations
Station Observations
DW6359
Southwest Cambria, Cambria, WI 53923

Southwest CambriaCambria, WI 53923

Lat: 43.541194, Lon: -89.11275

Elevation: 945

Station Type: Davis Vantage Pro2

http://home.centurytel.net/weathercambria/wxcambria.html

High Low Average
Temperature 32.0°F0.0°C 23.8°F-4.6°C 27.7°F-2.4°C
Dew Point 26.1°F-3.3°C 18.3°F-7.6°C 23.1°F-4.9°C
Winds 21.0 mph 33.8 kmh 2.0 mph 3.2 kmh 7.0 mph WNW11.3 kmh WNW
Wind Gusts 19.0 mph30.6 kmh -- 3.0 mph4.8 kmh
Humidity 89% 74% 83%
Pressure 30.00 in1015.9 mb 29.89 in1012.2 mb -
Precipitation 0.00 in0.0 mm - -
Hour Temp Dew Point Humidity Winds Wind Gusts Pressure Precip Precip Rate Daily Precip Total
12:00 AM 24.5°F-4.2°C 21.7°F-5.7°C 89% 7.0 mph WNW11.3 kmh WNW -- 29.90 in1012.5 mb 0.00 in0.0 mm 0.00 in0.0 mm 0.00 in0.0 mm
12:05 AM 24.5°F-4.2°C 21.7°F-5.7°C 89% 6.0 mph NW9.7 kmh NW -- 29.90 in1012.5 mb 0.00 in0.0 mm 0.00 in0.0 mm 0.00 in0.0 mm
12:10 AM 24.5°F-4.2°C 21.7°F-5.7°C 89% 6.0 mph NW9.7 kmh NW -- 29.90 in1012.5 mb 0.00 in0.0 mm 0.00 in0.0 mm 0.00 in0.0 mm
12:15 AM 24.5°F-4.2°C 21.7°F-5.7°C 89% 10.0 mph NW16.1 kmh NW -- 29.90 in1012.5 mb 0.00 in0.0 mm 0.00 in0.0 mm 0.00 in0.0 mm
12:20 AM 24.5°F-4.2°C 21.7°F-5.7°C 89% 9.0 mph WNW14.5 kmh WNW 13.0 mph20.9 kmh 29.90 in1012.5 mb 0.00 in0.0 mm 0.00 in0.0 mm 0.00 in0.0 mm
12:25 AM 24.5°F-4.2°C 21.7°F-5.7°C 89% 8.0 mph NW12.9 kmh NW 13.0 mph20.9 kmh 29.90 in1012.5 mb 0.00 in0.0 mm 0.00 in0.0 mm 0.00 in0.0 mm
12:30 AM 24.5°F-4.2°C 21.7°F-5.7°C 89% 3.0 mph NW4.8 kmh NW -- 29.89 in1012.2 mb 0.00 in0.0 mm 0.00 in0.0 mm 0.00 in0.0 mm
12:35 AM 24.5°F-4.2°C 21.7°F-5.7°C 89% 8.0 mph NW12.9 kmh NW -- 29.89 in1012.2 mb 0.00 in0.0 mm 0.00 in0.0 mm 0.00 in0.0 mm
12:40 AM 24.5°F-4.2°C 21.7°F-5.7°C 89% 8.0 mph NW12.9 kmh NW -- 29.89 in1012.2 mb 0.00 in0.0 mm 0.00 in0.0 mm 0.00 in0.0 mm
12:45 AM 24.4°F-4.2°C 21.6°F-5.8°C 89% 6.0 mph NNW9.7 kmh NNW -- 29.89 in1012.2 mb 0.00 in0.0 mm 0.00 in0.0 mm 0.00 in0.0 mm
12:50 AM 24.4°F-4.2°C 21.6°F-5.8°C 89% 6.0 mph NW9.7 kmh NW -- 29.89 in1012.2 mb 0.00 in0.0 mm 0.00 in0.0 mm 0.00 in0.0 mm
12:55 AM 24.5°F-4.2°C 21.7°F-5.7°C 89% 6.0 mph NW9.7 kmh NW -- 29.89 in1012.2 mb 0.00 in0.0 mm 0.00 in0.0 mm 0.00 in0.0 mm
01:00 AM 24.4°F-4.2°C 21.6°F-5.8°C 89% 5.0 mph NNW8.0 kmh NNW -- 29.89 in1012.2 mb 0.00 in0.0 mm 0.00 in0.0 mm 0.00 in0.0 mm
01:05 AM 24.4°F-4.2°C 21.6°F-5.8°C 89% 6.0 mph NW9.7 kmh NW -- 29.89 in1012.2 mb 0.00 in0.0 mm 0.00 in0.0 mm 0.00 in0.0 mm
01:10 AM 24.4°F-4.2°C 21.6°F-5.8°C 89% 6.0 mph NW9.7 kmh NW 11.0 mph17.7 kmh 29.89 in1012.2 mb 0.00 in0.0 mm 0.00 in0.0 mm 0.00 in0.0 mm
01:15 AM 24.4°F-4.2°C 21.6°F-5.8°C 89% 9.0 mph NW14.5 kmh NW 11.0 mph17.7 kmh 29.89 in1012.2 mb 0.00 in0.0 mm 0.00 in0.0 mm 0.00 in0.0 mm
01:20 AM 24.4°F-4.2°C 21.6°F-5.8°C 89% 8.0 mph WNW12.9 kmh WNW -- 29.89 in1012.2 mb 0.00 in0.0 mm 0.00 in0.0 mm 0.00 in0.0 mm
01:25 AM 24.4°F-4.2°C 21.6°F-5.8°C 89% 8.0 mph NW12.9 kmh NW -- 29.89 in1012.2 mb 0.00 in0.0 mm 0.00 in0.0 mm 0.00 in0.0 mm
01:30 AM 24.4°F-4.2°C 21.6°F-5.8°C 89% 7.0 mph NNW11.3 kmh NNW -- 29.89 in1012.2 mb 0.00 in0.0 mm 0.00 in0.0 mm 0.00 in0.0 mm
01:35 AM 24.4°F-4.2°C 21.6°F-5.8°C 89% 6.0 mph NW9.7 kmh NW -- 29.89 in1012.2 mb 0.00 in0.0 mm 0.00 in0.0 mm 0.00 in0.0 mm
01:40 AM 24.4°F-4.2°C 21.6°F-5.8°C 89% 10.0 mph NW16.1 kmh NW -- 29.89 in1012.2 mb 0.00 in0.0 mm 0.00 in0.0 mm 0.00 in0.0 mm
01:45 AM 24.4°F-4.2°C 21.6°F-5.8°C 89% 6.0 mph NW9.7 kmh NW -- 29.89 in1012.2 mb 0.00 in0.0 mm 0.00 in0.0 mm 0.00 in0.0 mm
01:50 AM 24.4°F-4.2°C 21.6°F-5.8°C 89% 7.0 mph NW11.3 kmh NW -- 29.89 in1012.2 mb 0.00 in0.0 mm 0.00 in0.0 mm 0.00 in0.0 mm
01:55 AM 24.4°F-4.2°C 21.6°F-5.8°C 89% 9.0 mph NW14.5 kmh NW -- 29.89 in1012.2 mb 0.00 in0.0 mm 0.00 in0.0 mm 0.00 in0.0 mm
02:00 AM 24.4°F-4.2°C 21.6°F-5.8°C 89% 9.0 mph NW14.5 kmh NW 13.0 mph20.9 kmh 29.89 in1012.2 mb 0.00 in0.0 mm 0.00 in0.0 mm 0.00 in0.0 mm
02:05 AM 24.4°F-4.2°C 21.6°F-5.8°C 89% 5.0 mph NW8.0 kmh NW 13.0 mph20.9 kmh 29.89 in1012.2 mb 0.00 in0.0 mm 0.00 in0.0 mm 0.00 in0.0 mm
02:10 AM 24.4°F-4.2°C 21.6°F-5.8°C 89% 6.0 mph NW9.7 kmh NW -- 29.89 in1012.2 mb 0.00 in0.0 mm 0.00 in0.0 mm 0.00 in0.0 mm
02:15 AM 24.4°F-4.2°C 21.6°F-5.8°C 89% 6.0 mph NW9.7 kmh NW -- 29.89 in1012.2 mb 0.00 in0.0 mm 0.00 in0.0 mm 0.00 in0.0 mm
02:20 AM 24.4°F-4.2°C 21.6°F-5.8°C 89% 4.0 mph NW6.4 kmh NW -- 29.89 in1012.2 mb 0.00 in0.0 mm 0.00 in0.0 mm 0.00 in0.0 mm
02:25 AM 24.4°F-4.2°C 21.6°F-5.8°C 89% 5.0 mph N8.0 kmh N -- 29.89 in1012.2 mb 0.00 in0.0 mm 0.00 in0.0 mm 0.00 in0.0 mm
02:30 AM 24.4°F-4.2°C 21.6°F-5.8°C 89% 7.0 mph WNW11.3 kmh WNW -- 29.89 in1012.2 mb 0.00 in0.0 mm 0.00 in0.0 mm 0.00 in0.0 mm
02:35 AM 24.4°F-4.2°C 21.6°F-5.8°C 89% 8.0 mph NW12.9 kmh NW -- 29.89 in1012.2 mb 0.00 in0.0 mm 0.00 in0.0 mm 0.00 in0.0 mm
02:40 AM 24.4°F-4.2°C 21.6°F-5.8°C 89% 6.0 mph NW9.7 kmh NW -- 29.90 in1012.5 mb 0.00 in0.0 mm 0.00 in0.0 mm 0.00 in0.0 mm
02:45 AM 24.4°F-4.2°C 21.6°F-5.8°C 89% 3.0 mph W4.8 kmh W -- 29.90 in1012.5 mb 0.00 in0.0 mm 0.00 in0.0 mm 0.00 in0.0 mm
02:50 AM 24.4°F-4.2°C 21.6°F-5.8°C 89% 6.0 mph NW9.7 kmh NW 13.0 mph20.9 kmh 29.89 in1012.2 mb 0.00 in0.0 mm 0.00 in0.0 mm 0.00 in0.0 mm
02:55 AM 24.4°F-4.2°C 21.6°F-5.8°C 89% 8.0 mph NW12.9 kmh NW 13.0 mph20.9 kmh 29.89 in1012.2 mb 0.00 in0.0 mm 0.00 in0.0 mm 0.00 in0.0 mm
03:00 AM 24.4°F-4.2°C 21.6°F-5.8°C 89% 4.0 mph NW6.4 kmh NW -- 29.89 in1012.2 mb 0.00 in0.0 mm 0.00 in0.0 mm 0.00 in0.0 mm
03:05 AM 24.4°F-4.2°C 21.6°F-5.8°C 89% 5.0 mph NW8.0 kmh NW -- 29.89 in1012.2 mb 0.00 in0.0 mm 0.00 in0.0 mm 0.00 in0.0 mm
03:10 AM 24.4°F-4.2°C 21.6°F-5.8°C 89% 5.0 mph NW8.0 kmh NW -- 29.90 in1012.5 mb 0.00 in0.0 mm 0.00 in0.0 mm 0.00 in0.0 mm
03:15 AM 24.4°F-4.2°C 21.6°F-5.8°C 89% 6.0 mph W9.7 kmh W -- 29.90 in1012.5 mb 0.00 in0.0 mm 0.00 in0.0 mm 0.00 in0.0 mm
03:20 AM 24.4°F-4.2°C 21.6°F-5.8°C 89% 6.0 mph WNW9.7 kmh WNW -- 29.90 in1012.5 mb 0.00 in0.0 mm 0.00 in0.0 mm 0.00 in0.0 mm
03:25 AM 24.4°F-4.2°C 21.6°F-5.8°C 89% 5.0 mph NW8.0 kmh NW -- 29.90 in1012.5 mb 0.00 in0.0 mm 0.00 in0.0 mm 0.00 in0.0 mm
03:30 AM 24.4°F-4.2°C 21.6°F-5.8°C 89% 6.0 mph NW9.7 kmh NW -- 29.90 in1012.5 mb 0.00 in0.0 mm 0.00 in0.0 mm 0.00 in0.0 mm
03:35 AM 24.4°F-4.2°C 21.6°F-5.8°C 89% 5.0 mph NW8.0 kmh NW -- 29.90 in1012.5 mb 0.00 in0.0 mm 0.00 in0.0 mm 0.00 in0.0 mm
03:40 AM 24.4°F-4.2°C 21.6°F-5.8°C 89% 6.0 mph WNW9.7 kmh WNW 11.0 mph17.7 kmh 29.90 in1012.5 mb 0.00 in0.0 mm 0.00 in0.0 mm 0.00 in0.0 mm
03:45 AM 24.4°F-4.2°C 21.6°F-5.8°C 89% 7.0 mph NW11.3 kmh NW 11.0 mph17.7 kmh 29.90 in1012.5 mb 0.00 in0.0 mm 0.00 in0.0 mm 0.00 in0.0 mm
03:50 AM 24.4°F-4.2°C 21.6°F-5.8°C 89% 6.0 mph NW9.7 kmh NW -- 29.90 in1012.5 mb 0.00 in0.0 mm 0.00 in0.0 mm 0.00 in0.0 mm
03:55 AM 24.4°F-4.2°C 21.6°F-5.8°C 89% 8.0 mph W12.9 kmh W -- 29.90 in1012.5 mb 0.00 in0.0 mm 0.00 in0.0 mm 0.00 in0.0 mm
04:00 AM 24.4°F-4.2°C 21.6°F-5.8°C 89% 9.0 mph NW14.5 kmh NW -- 29.90 in1012.5 mb 0.00 in0.0 mm 0.00 in0.0 mm 0.00 in0.0 mm
04:05 AM 24.4°F-4.2°C 21.6°F-5.8°C 89% 8.0 mph NW12.9 kmh NW -- 29.90 in1012.5 mb 0.00 in0.0 mm 0.00 in0.0 mm 0.00 in0.0 mm
04:10 AM 24.4°F-4.2°C 21.6°F-5.8°C 89% 4.0 mph NW6.4 kmh NW -- 29.90 in1012.5 mb 0.00 in0.0 mm 0.00 in0.0 mm 0.00 in0.0 mm
04:15 AM 24.4°F-4.2°C 21.6°F-5.8°C 89% 4.0 mph NW6.4 kmh NW -- 29.91 in1012.9 mb 0.00 in0.0 mm 0.00 in0.0 mm 0.00 in0.0 mm
04:20 AM 24.4°F-4.2°C 21.6°F-5.8°C 89% 4.0 mph NW6.4 kmh NW -- 29.90 in1012.5 mb 0.00 in0.0 mm 0.00 in0.0 mm 0.00 in0.0 mm
04:25 AM 24.3°F-4.3°C 21.5°F-5.8°C 89% 7.0 mph W11.3 kmh W -- 29.91 in1012.9 mb 0.00 in0.0 mm 0.00 in0.0 mm 0.00 in0.0 mm
04:30 AM 24.3°F-4.3°C 21.5°F-5.8°C 89% 6.0 mph WNW9.7 kmh WNW 9.0 mph14.5 kmh 29.91 in1012.9 mb 0.00 in0.0 mm 0.00 in0.0 mm 0.00 in0.0 mm
04:35 AM 24.3°F-4.3°C 21.5°F-5.8°C 89% 5.0 mph NW8.0 kmh NW 9.0 mph14.5 kmh 29.91 in1012.9 mb 0.00 in0.0 mm 0.00 in0.0 mm 0.00 in0.0 mm
04:40 AM 24.4°F-4.2°C 21.6°F-5.8°C 89% 6.0 mph NW9.7 kmh NW -- 29.91 in1012.9 mb 0.00 in0.0 mm 0.00 in0.0 mm 0.00 in0.0 mm
04:45 AM 24.3°F-4.3°C 21.5°F-5.8°C 89% 4.0 mph NW6.4 kmh NW -- 29.91 in1012.9 mb 0.00 in0.0 mm 0.00 in0.0 mm 0.00 in0.0 mm
04:50 AM 24.3°F-4.3°C 21.5°F-5.8°C 89% 8.0 mph WNW12.9 kmh WNW -- 29.91 in1012.9 mb 0.00 in0.0 mm 0.00 in0.0 mm 0.00 in0.0 mm
04:55 AM 24.3°F-4.3°C 21.5°F-5.8°C 89% 5.0 mph NW8.0 kmh NW -- 29.91 in1012.9 mb 0.00 in0.0 mm 0.00 in0.0 mm 0.00 in0.0 mm
05:00 AM 24.3°F-4.3°C 21.5°F-5.8°C 89% 6.0 mph WNW9.7 kmh WNW -- 29.91 in1012.9 mb 0.00 in0.0 mm 0.00 in0.0 mm 0.00 in0.0 mm
05:05 AM 24.3°F-4.3°C 21.5°F-5.8°C 89% 8.0 mph WNW12.9 kmh WNW -- 29.91 in1012.9 mb 0.00 in0.0 mm 0.00 in0.0 mm 0.00 in0.0 mm
05:10 AM 24.2°F-4.3°C 21.4°F-5.9°C 89% 5.0 mph WNW8.0 kmh WNW -- 29.91 in1012.9 mb 0.00 in0.0 mm 0.00 in0.0 mm 0.00 in0.0 mm
05:15 AM 24.2°F-4.3°C 21.4°F-5.9°C 89% 5.0 mph NW8.0 kmh NW -- 29.91 in1012.9 mb 0.00 in0.0 mm 0.00 in0.0 mm 0.00 in0.0 mm
05:20 AM 24.2°F-4.3°C 21.4°F-5.9°C 89% 11.0 mph NW17.7 kmh NW 15.0 mph24.1 kmh 29.91 in1012.9 mb 0.00 in0.0 mm 0.00 in0.0 mm 0.00 in0.0 mm
05:25 AM 24.2°F-4.3°C 21.4°F-5.9°C 89% 4.0 mph WNW6.4 kmh WNW 15.0 mph24.1 kmh 29.91 in1012.9 mb 0.00 in0.0 mm 0.00 in0.0 mm 0.00 in0.0 mm
05:30 AM 24.2°F-4.3°C 21.4°F-5.9°C 89% 4.0 mph WNW6.4 kmh WNW -- 29.91 in1012.9 mb 0.00 in0.0 mm 0.00 in0.0 mm 0.00 in0.0 mm
05:35 AM 24.2°F-4.3°C 21.4°F-5.9°C 89% 6.0 mph NW9.7 kmh NW -- 29.91 in1012.9 mb 0.00 in0.0 mm 0.00 in0.0 mm 0.00 in0.0 mm
05:40 AM 24.2°F-4.3°C 21.4°F-5.9°C 89% 7.0 mph WNW11.3 kmh WNW -- 29.91 in1012.9 mb 0.00 in0.0 mm 0.00 in0.0 mm 0.00 in0.0 mm
05:45 AM 24.3°F-4.3°C 21.5°F-5.8°C 89% 7.0 mph NW11.3 kmh NW -- 29.91 in1012.9 mb 0.00 in0.0 mm 0.00 in0.0 mm 0.00 in0.0 mm
05:50 AM 24.3°F-4.3°C 21.5°F-5.8°C 89% 6.0 mph NW9.7 kmh NW -- 29.91 in1012.9 mb 0.00 in0.0 mm 0.00 in0.0 mm 0.00 in0.0 mm
05:55 AM 24.3°F-4.3°C 21.5°F-5.8°C 89% 10.0 mph WNW16.1 kmh WNW -- 29.91 in1012.9 mb 0.00 in0.0 mm 0.00 in0.0 mm 0.00 in0.0 mm
06:00 AM 24.3°F-4.3°C 21.5°F-5.8°C 89% 6.0 mph WNW9.7 kmh WNW -- 29.91 in1012.9 mb 0.00 in0.0 mm 0.00 in0.0 mm 0.00 in0.0 mm
06:05 AM 24.4°F-4.2°C 21.6°F-5.8°C 89% 7.0 mph NW11.3 kmh NW -- 29.91 in1012.9 mb 0.00 in0.0 mm 0.00 in0.0 mm 0.00 in0.0 mm
06:10 AM 24.4°F-4.2°C 21.6°F-5.8°C 89% 6.0 mph NW9.7 kmh NW 13.0 mph20.9 kmh 29.91 in1012.9 mb 0.00 in0.0 mm 0.00 in0.0 mm 0.00 in0.0 mm
06:15 AM 24.5°F-4.2°C 21.7°F-5.7°C 89% 9.0 mph WNW14.5 kmh WNW 13.0 mph20.9 kmh 29.92 in1013.2 mb 0.00 in0.0 mm 0.00 in0.0 mm 0.00 in0.0 mm
06:20 AM 24.5°F-4.2°C 21.7°F-5.7°C 89% 8.0 mph NW12.9 kmh NW -- 29.92 in1013.2 mb 0.00 in0.0 mm 0.00 in0.0 mm 0.00 in0.0 mm
06:25 AM 24.5°F-4.2°C 21.7°F-5.7°C 89% 8.0 mph W12.9 kmh W -- 29.92 in1013.2 mb 0.00 in0.0 mm 0.00 in0.0 mm 0.00 in0.0 mm
06:30 AM 24.6°F-4.1°C 21.8°F-5.7°C 89% 6.0 mph W9.7 kmh W -- 29.92 in1013.2 mb 0.00 in0.0 mm 0.00 in0.0 mm 0.00 in0.0 mm
06:35 AM 24.6°F-4.1°C 21.8°F-5.7°C 89% 4.0 mph NW6.4 kmh NW -- 29.92 in1013.2 mb 0.00 in0.0 mm 0.00 in0.0 mm 0.00 in0.0 mm
06:40 AM 24.7°F-4.1°C 21.9°F-5.6°C 89% 6.0 mph WNW9.7 kmh WNW -- 29.92 in1013.2 mb 0.00 in0.0 mm 0.00 in0.0 mm 0.00 in0.0 mm
06:45 AM 24.8°F-4.0°C 22.0°F-5.6°C 89% 6.0 mph NW9.7 kmh NW -- 29.92 in1013.2 mb 0.00 in0.0 mm 0.00 in0.0 mm 0.00 in0.0 mm
06:50 AM 24.8°F-4.0°C 22.0°F-5.6°C 89% 5.0 mph NW8.0 kmh NW -- 29.92 in1013.2 mb 0.00 in0.0 mm 0.00 in0.0 mm 0.00 in0.0 mm
06:55 AM 24.9°F-3.9°C 22.1°F-5.5°C 89% 5.0 mph NW8.0 kmh NW -- 29.93 in1013.5 mb 0.00 in0.0 mm 0.00 in0.0 mm 0.00 in0.0 mm
07:00 AM 25.0°F-3.9°C 22.2°F-5.4°C 89% 8.0 mph NW12.9 kmh NW 11.0 mph17.7 kmh 29.93 in1013.5 mb 0.00 in0.0 mm 0.00 in0.0 mm 0.00 in0.0 mm
07:05 AM 25.1°F-3.8°C 22.3°F-5.4°C 89% 3.0 mph WNW4.8 kmh WNW 11.0 mph17.7 kmh 29.93 in1013.5 mb 0.00 in0.0 mm 0.00 in0.0 mm 0.00 in0.0 mm
07:10 AM 25.2°F-3.8°C 22.4°F-5.3°C 89% 5.0 mph NW8.0 kmh NW -- 29.93 in1013.5 mb 0.00 in0.0 mm 0.00 in0.0 mm 0.00 in0.0 mm
07:15 AM 25.2°F-3.8°C 22.4°F-5.3°C 89% 7.0 mph NW11.3 kmh NW -- 29.93 in1013.5 mb 0.00 in0.0 mm 0.00 in0.0 mm 0.00 in0.0 mm
07:20 AM 25.4°F-3.7°C 22.6°F-5.2°C 89% 9.0 mph NW14.5 kmh NW -- 29.93 in1013.5 mb 0.00 in0.0 mm 0.00 in0.0 mm 0.00 in0.0 mm
07:25 AM 25.4°F-3.7°C 22.6°F-5.2°C 89% 7.0 mph WNW11.3 kmh WNW -- 29.93 in1013.5 mb 0.00 in0.0 mm 0.00 in0.0 mm 0.00 in0.0 mm
07:30 AM 25.5°F-3.6°C 22.7°F-5.2°C 89% 7.0 mph W11.3 kmh W -- 29.93 in1013.5 mb 0.00 in0.0 mm 0.00 in0.0 mm 0.00 in0.0 mm
07:35 AM 25.6°F-3.6°C 22.8°F-5.1°C 89% 4.0 mph WNW6.4 kmh WNW -- 29.93 in1013.5 mb 0.00 in0.0 mm 0.00 in0.0 mm 0.00 in0.0 mm
07:40 AM 25.6°F-3.6°C 22.8°F-5.1°C 89% 5.0 mph NNW8.0 kmh NNW -- 29.93 in1013.5 mb 0.00 in0.0 mm 0.00 in0.0 mm 0.00 in0.0 mm
07:45 AM 25.7°F-3.5°C 22.9°F-5.1°C 89% 13.0 mph W20.9 kmh W -- 29.93 in1013.5 mb 0.00 in0.0 mm 0.00 in0.0 mm 0.00 in0.0 mm
07:50 AM 25.7°F-3.5°C 22.9°F-5.1°C 89% 9.0 mph NW14.5 kmh NW 13.0 mph20.9 kmh 29.93 in1013.5 mb 0.00 in0.0 mm 0.00 in0.0 mm 0.00 in0.0 mm
07:55 AM 25.8°F-3.4°C 23.0°F-5.0°C 89% 4.0 mph W6.4 kmh W 13.0 mph20.9 kmh 29.93 in1013.5 mb 0.00 in0.0 mm 0.00 in0.0 mm 0.00 in0.0 mm
08:00 AM 26.0°F-3.3°C 23.2°F-4.9°C 89% 6.0 mph W9.7 kmh W -- 29.93 in1013.5 mb 0.00 in0.0 mm 0.00 in0.0 mm 0.00 in0.0 mm
08:05 AM 26.1°F-3.3°C 23.3°F-4.8°C 89% 8.0 mph NW12.9 kmh NW -- 29.93 in1013.5 mb 0.00 in0.0 mm 0.00 in0.0 mm 0.00 in0.0 mm
08:10 AM 26.1°F-3.3°C 23.3°F-4.8°C 89% 6.0 mph WNW9.7 kmh WNW -- 29.93 in1013.5 mb 0.00 in0.0 mm 0.00 in0.0 mm 0.00 in0.0 mm
08:15 AM 26.2°F-3.2°C 23.4°F-4.8°C 89% 5.0 mph NW8.0 kmh NW -- 29.93 in1013.5 mb 0.00 in0.0 mm 0.00 in0.0 mm 0.00 in0.0 mm
08:20 AM 26.4°F-3.1°C 23.6°F-4.7°C 89% 5.0 mph NW8.0 kmh NW -- 29.94 in1013.9 mb 0.00 in0.0 mm 0.00 in0.0 mm 0.00 in0.0 mm
08:25 AM 26.5°F-3.1°C 23.7°F-4.6°C 89% 10.0 mph NW16.1 kmh NW -- 29.94 in1013.9 mb 0.00 in0.0 mm 0.00 in0.0 mm 0.00 in0.0 mm
08:30 AM 26.7°F-2.9°C 23.9°F-4.5°C 89% 7.0 mph WNW11.3 kmh WNW -- 29.94 in1013.9 mb 0.00 in0.0 mm 0.00 in0.0 mm 0.00 in0.0 mm
08:35 AM 26.7°F-2.9°C 23.9°F-4.5°C 89% 8.0 mph NW12.9 kmh NW -- 29.94 in1013.9 mb 0.00 in0.0 mm 0.00 in0.0 mm 0.00 in0.0 mm
08:40 AM 26.9°F-2.8°C 24.1°F-4.4°C 89% 7.0 mph WNW11.3 kmh WNW 12.0 mph19.3 kmh 29.94 in1013.9 mb 0.00 in0.0 mm 0.00 in0.0 mm 0.00 in0.0 mm
08:45 AM 26.9°F-2.8°C 24.1°F-4.4°C 89% 5.0 mph WNW8.0 kmh WNW 12.0 mph19.3 kmh 29.94 in1013.9 mb 0.00 in0.0 mm 0.00 in0.0 mm 0.00 in0.0 mm
08:50 AM 27.0°F-2.8°C 24.2°F-4.3°C 89% 5.0 mph NW8.0 kmh NW -- 29.94 in1013.9 mb 0.00 in0.0 mm 0.00 in0.0 mm 0.00 in0.0 mm
08:55 AM 27.1°F-2.7°C 24.3°F-4.3°C 89% 5.0 mph WNW8.0 kmh WNW -- 29.94 in1013.9 mb 0.00 in0.0 mm 0.00 in0.0 mm 0.00 in0.0 mm
09:00 AM 27.3°F-2.6°C 24.5°F-4.2°C 89% 8.0 mph NW12.9 kmh NW -- 29.94 in1013.9 mb 0.00 in0.0 mm 0.00 in0.0 mm 0.00 in0.0 mm
09:05 AM 27.3°F-2.6°C 24.5°F-4.2°C 89% 10.0 mph NW16.1 kmh NW -- 29.94 in1013.9 mb 0.00 in0.0 mm 0.00 in0.0 mm 0.00 in0.0 mm
09:10 AM 27.5°F-2.5°C 24.4°F-4.2°C 88% 5.0 mph NW8.0 kmh NW -- 29.94 in1013.9 mb 0.00 in0.0 mm 0.00 in0.0 mm 0.00 in0.0 mm
09:15 AM 27.6°F-2.4°C 24.5°F-4.2°C 88% 8.0 mph NW12.9 kmh NW -- 29.94 in1013.9 mb 0.00 in0.0 mm 0.00 in0.0 mm 0.00 in0.0 mm
09:20 AM 27.8°F-2.3°C 24.7°F-4.1°C 88% 6.0 mph NW9.7 kmh NW -- 29.94 in1013.9 mb 0.00 in0.0 mm 0.00 in0.0 mm 0.00 in0.0 mm
09:25 AM 27.9°F-2.3°C 24.8°F-4.0°C 88% 4.0 mph NW6.4 kmh NW -- 29.94 in1013.9 mb 0.00 in0.0 mm 0.00 in0.0 mm 0.00 in0.0 mm
09:30 AM 28.1°F-2.2°C 25.0°F-3.9°C 88% 5.0 mph NW8.0 kmh NW 13.0 mph20.9 kmh 29.94 in1013.9 mb 0.00 in0.0 mm 0.00 in0.0 mm 0.00 in0.0 mm
09:35 AM 28.4°F-2.0°C 25.3°F-3.7°C 88% 6.0 mph NW9.7 kmh NW 13.0 mph20.9 kmh 29.94 in1013.9 mb 0.00 in0.0 mm 0.00 in0.0 mm 0.00 in0.0 mm
09:40 AM 28.5°F-1.9°C 25.4°F-3.7°C 88% 4.0 mph NW6.4 kmh NW -- 29.94 in1013.9 mb 0.00 in0.0 mm 0.00 in0.0 mm 0.00 in0.0 mm
09:45 AM 28.6°F-1.9°C 25.5°F-3.6°C 88% 6.0 mph NW9.7 kmh NW -- 29.94 in1013.9 mb 0.00 in0.0 mm 0.00 in0.0 mm 0.00 in0.0 mm
09:50 AM 28.5°F-1.9°C 25.1°F-3.8°C 87% 8.0 mph NW12.9 kmh NW -- 29.95 in1014.2 mb 0.00 in0.0 mm 0.00 in0.0 mm 0.00 in0.0 mm
09:55 AM 28.8°F-1.8°C 25.4°F-3.7°C 87% 7.0 mph WNW11.3 kmh WNW -- 29.95 in1014.2 mb 0.00 in0.0 mm 0.00 in0.0 mm 0.00 in0.0 mm
10:00 AM 28.9°F-1.7°C 25.5°F-3.6°C 87% 7.0 mph NW11.3 kmh NW -- 29.95 in1014.2 mb 0.00 in0.0 mm 0.00 in0.0 mm 0.00 in0.0 mm
10:05 AM 29.1°F-1.6°C 25.7°F-3.5°C 87% 5.0 mph NNW8.0 kmh NNW -- 29.95 in1014.2 mb 0.00 in0.0 mm 0.00 in0.0 mm 0.00 in0.0 mm
10:10 AM 29.2°F-1.6°C 25.5°F-3.6°C 86% 8.0 mph NW12.9 kmh NW -- 29.95 in1014.2 mb 0.00 in0.0 mm 0.00 in0.0 mm 0.00 in0.0 mm
10:15 AM 29.3°F-1.5°C 25.6°F-3.6°C 86% 8.0 mph WNW12.9 kmh WNW -- 29.95 in1014.2 mb 0.00 in0.0 mm 0.00 in0.0 mm 0.00 in0.0 mm
10:20 AM 29.5°F-1.4°C 25.8°F-3.4°C 86% 8.0 mph NW12.9 kmh NW 13.0 mph20.9 kmh 29.95 in1014.2 mb 0.00 in0.0 mm 0.00 in0.0 mm 0.00 in0.0 mm
10:25 AM 29.6°F-1.3°C 25.9°F-3.4°C 86% 10.0 mph NW16.1 kmh NW 13.0 mph20.9 kmh 29.95 in1014.2 mb 0.00 in0.0 mm 0.00 in0.0 mm 0.00 in0.0 mm
10:30 AM 29.6°F-1.3°C 25.7°F-3.5°C 85% 11.0 mph WNW17.7 kmh WNW -- 29.95 in1014.2 mb 0.00 in0.0 mm 0.00 in0.0 mm 0.00 in0.0 mm
10:35 AM 29.8°F-1.2°C 25.9°F-3.4°C 85% 6.0 mph NW9.7 kmh NW -- 29.95 in1014.2 mb 0.00 in0.0 mm 0.00 in0.0 mm 0.00 in0.0 mm
10:40 AM 29.9°F-1.2°C 25.9°F-3.4°C 85% 7.0 mph WNW11.3 kmh WNW -- 29.96 in1014.6 mb 0.00 in0.0 mm 0.00 in0.0 mm 0.00 in0.0 mm
10:45 AM 29.8°F-1.2°C 25.6°F-3.6°C 84% 8.0 mph WNW12.9 kmh WNW -- 29.95 in1014.2 mb 0.00 in0.0 mm 0.00 in0.0 mm 0.00 in0.0 mm
10:50 AM 29.7°F-1.3°C 25.8°F-3.4°C 85% 11.0 mph WNW17.7 kmh WNW -- 29.95 in1014.2 mb 0.00 in0.0 mm 0.00 in0.0 mm 0.00 in0.0 mm
10:55 AM 29.6°F-1.3°C 25.4°F-3.7°C 84% 8.0 mph NW12.9 kmh NW -- 29.95 in1014.2 mb 0.00 in0.0 mm 0.00 in0.0 mm 0.00 in0.0 mm
11:00 AM 29.4°F-1.4°C 25.2°F-3.8°C 84% 6.0 mph NW9.7 kmh NW -- 29.95 in1014.2 mb 0.00 in0.0 mm 0.00 in0.0 mm 0.00 in0.0 mm
11:05 AM 29.4°F-1.4°C 25.2°F-3.8°C 84% 8.0 mph NW12.9 kmh NW -- 29.96 in1014.6 mb 0.00 in0.0 mm 0.00 in0.0 mm 0.00 in0.0 mm
11:10 AM 29.5°F-1.4°C 25.3°F-3.7°C 84% 12.0 mph WNW19.3 kmh WNW 16.0 mph25.7 kmh 29.96 in1014.6 mb 0.00 in0.0 mm 0.00 in0.0 mm 0.00 in0.0 mm
11:15 AM 29.5°F-1.4°C 25.6°F-3.6°C 85% 11.0 mph W17.7 kmh W 16.0 mph25.7 kmh 29.96 in1014.6 mb 0.00 in0.0 mm 0.00 in0.0 mm 0.00 in0.0 mm
11:20 AM 29.4°F-1.4°C 25.2°F-3.8°C 84% 7.0 mph WNW11.3 kmh WNW -- 29.96 in1014.6 mb 0.00 in0.0 mm 0.00 in0.0 mm 0.00 in0.0 mm
11:25 AM 29.4°F-1.4°C 25.2°F-3.8°C 84% 9.0 mph NW14.5 kmh NW -- 29.96 in1014.6 mb 0.00 in0.0 mm 0.00 in0.0 mm 0.00 in0.0 mm
11:30 AM 29.6°F-1.3°C 25.7°F-3.5°C 85% 5.0 mph W8.0 kmh W -- 29.96 in1014.6 mb 0.00 in0.0 mm 0.00 in0.0 mm 0.00 in0.0 mm
11:35 AM 29.8°F-1.2°C 25.6°F-3.6°C 84% 9.0 mph W14.5 kmh W -- 29.96 in1014.6 mb 0.00 in0.0 mm 0.00 in0.0 mm 0.00 in0.0 mm
11:40 AM 29.9°F-1.2°C 25.7°F-3.5°C 84% 7.0 mph W11.3 kmh W -- 29.96 in1014.6 mb 0.00 in0.0 mm 0.00 in0.0 mm 0.00 in0.0 mm
11:45 AM 30.2°F-1.0°C 25.7°F-3.5°C 83% 9.0 mph NW14.5 kmh NW -- 29.96 in1014.6 mb 0.00 in0.0 mm 0.00 in0.0 mm 0.00 in0.0 mm
11:50 AM 30.2°F-1.0°C 25.7°F-3.5°C 83% 13.0 mph NNW20.9 kmh NNW -- 29.96 in1014.6 mb 0.00 in0.0 mm 0.00 in0.0 mm 0.00 in0.0 mm
11:55 AM 30.2°F-1.0°C 25.4°F-3.7°C 82% 10.0 mph NW16.1 kmh NW -- 29.96 in1014.6 mb 0.00 in0.0 mm 0.00 in0.0 mm 0.00 in0.0 mm
12:00 PM 30.2°F-1.0°C 25.4°F-3.7°C 82% 7.0 mph NW11.3 kmh NW 18.0 mph29.0 kmh 29.96 in1014.6 mb 0.00 in0.0 mm 0.00 in0.0 mm 0.00 in0.0 mm
12:05 PM 30.4°F-0.9°C 25.9°F-3.4°C 83% 8.0 mph NW12.9 kmh NW 18.0 mph29.0 kmh 29.96 in1014.6 mb 0.00 in0.0 mm 0.00 in0.0 mm 0.00 in0.0 mm
12:10 PM 30.6°F-0.8°C 25.8°F-3.4°C 82% 5.0 mph W8.0 kmh W -- 29.96 in1014.6 mb 0.00 in0.0 mm 0.00 in0.0 mm 0.00 in0.0 mm
12:15 PM 30.8°F-0.7°C 26.0°F-3.3°C 82% 11.0 mph NW17.7 kmh NW -- 29.96 in1014.6 mb 0.00 in0.0 mm 0.00 in0.0 mm 0.00 in0.0 mm
12:20 PM 30.8°F-0.7°C 26.0°F-3.3°C 82% 7.0 mph WNW11.3 kmh WNW -- 29.96 in1014.6 mb 0.00 in0.0 mm 0.00 in0.0 mm 0.00 in0.0 mm
12:25 PM 31.0°F-0.6°C 25.9°F-3.4°C 81% 7.0 mph WNW11.3 kmh WNW -- 29.96 in1014.6 mb 0.00 in0.0 mm 0.00 in0.0 mm 0.00 in0.0 mm
12:30 PM 31.0°F-0.6°C 25.9°F-3.4°C 81% 8.0 mph WNW12.9 kmh WNW -- 29.96 in1014.6 mb 0.00 in0.0 mm 0.00 in0.0 mm 0.00 in0.0 mm
12:35 PM 31.0°F-0.6°C 25.6°F-3.6°C 80% 7.0 mph WNW11.3 kmh WNW -- 29.96 in1014.6 mb 0.00 in0.0 mm 0.00 in0.0 mm 0.00 in0.0 mm
12:40 PM 31.2°F-0.4°C 25.8°F-3.4°C 80% 8.0 mph W12.9 kmh W -- 29.96 in1014.6 mb 0.00 in0.0 mm 0.00 in0.0 mm 0.00 in0.0 mm
12:45 PM 31.2°F-0.4°C 25.8°F-3.4°C 80% 7.0 mph NW11.3 kmh NW -- 29.96 in1014.6 mb 0.00 in0.0 mm 0.00 in0.0 mm 0.00 in0.0 mm
12:50 PM 31.2°F-0.4°C 25.5°F-3.6°C 79% 12.0 mph NW19.3 kmh NW 16.0 mph25.7 kmh 29.96 in1014.6 mb 0.00 in0.0 mm 0.00 in0.0 mm 0.00 in0.0 mm
12:55 PM 31.1°F-0.5°C 25.4°F-3.7°C 79% 6.0 mph NW9.7 kmh NW 16.0 mph25.7 kmh 29.96 in1014.6 mb 0.00 in0.0 mm 0.00 in0.0 mm 0.00 in0.0 mm
01:00 PM 31.1°F-0.5°C 25.4°F-3.7°C 79% 8.0 mph NW12.9 kmh NW -- 29.96 in1014.6 mb 0.00 in0.0 mm 0.00 in0.0 mm 0.00 in0.0 mm
01:05 PM 31.2°F-0.4°C 25.5°F-3.6°C 79% 11.0 mph NW17.7 kmh NW -- 29.96 in1014.6 mb 0.00 in0.0 mm 0.00 in0.0 mm 0.00 in0.0 mm
01:10 PM 31.5°F-0.3°C 26.1°F-3.3°C 80% 21.0 mph NW33.8 kmh NW -- 29.96 in1014.6 mb 0.00 in0.0 mm 0.00 in0.0 mm 0.00 in0.0 mm
01:15 PM 31.1°F-0.5°C 25.1°F-3.8°C 78% 4.0 mph NW6.4 kmh NW -- 29.96 in1014.6 mb 0.00 in0.0 mm 0.00 in0.0 mm 0.00 in0.0 mm
01:20 PM 31.3°F-0.4°C 25.6°F-3.6°C 79% 5.0 mph WNW8.0 kmh WNW -- 29.96 in1014.6 mb 0.00 in0.0 mm 0.00 in0.0 mm 0.00 in0.0 mm
01:25 PM 31.5°F-0.3°C 25.8°F-3.4°C 79% 10.0 mph W16.1 kmh W -- 29.96 in1014.6 mb 0.00 in0.0 mm 0.00 in0.0 mm 0.00 in0.0 mm
01:30 PM 31.6°F-0.2°C 25.5°F-3.6°C 78% 6.0 mph WNW9.7 kmh WNW -- 29.95 in1014.2 mb 0.00 in0.0 mm 0.00 in0.0 mm 0.00 in0.0 mm
01:35 PM 31.5°F-0.3°C 25.4°F-3.7°C 78% 9.0 mph NW14.5 kmh NW -- 29.96 in1014.6 mb 0.00 in0.0 mm 0.00 in0.0 mm 0.00 in0.0 mm
01:40 PM 31.6°F-0.2°C 25.8°F-3.4°C 79% 8.0 mph NW12.9 kmh NW 19.0 mph30.6 kmh 29.95 in1014.2 mb 0.00 in0.0 mm 0.00 in0.0 mm 0.00 in0.0 mm
01:45 PM 31.6°F-0.2°C 25.5°F-3.6°C 78% 7.0 mph NW11.3 kmh NW 19.0 mph30.6 kmh 29.95 in1014.2 mb 0.00 in0.0 mm 0.00 in0.0 mm 0.00 in0.0 mm
01:50 PM 31.7°F-0.2°C 25.6°F-3.6°C 78% 10.0 mph WNW16.1 kmh WNW -- 29.95 in1014.2 mb 0.00 in0.0 mm 0.00 in0.0 mm 0.00 in0.0 mm
01:55 PM 31.7°F-0.2°C 25.6°F-3.6°C 78% 9.0 mph WNW14.5 kmh WNW -- 29.95 in1014.2 mb 0.00 in0.0 mm 0.00 in0.0 mm 0.00 in0.0 mm
02:00 PM 31.5°F-0.3°C 25.4°F-3.7°C 78% 7.0 mph NW11.3 kmh NW -- 29.95 in1014.2 mb 0.00 in0.0 mm 0.00 in0.0 mm 0.00 in0.0 mm
02:05 PM 31.6°F-0.2°C 25.5°F-3.6°C 78% 4.0 mph WNW6.4 kmh WNW -- 29.95 in1014.2 mb 0.00 in0.0 mm 0.00 in0.0 mm 0.00 in0.0 mm
02:10 PM 31.6°F-0.2°C 25.2°F-3.8°C 77% 10.0 mph W16.1 kmh W -- 29.95 in1014.2 mb 0.00 in0.0 mm 0.00 in0.0 mm 0.00 in0.0 mm
02:15 PM 31.7°F-0.2°C 25.3°F-3.7°C 77% 11.0 mph NW17.7 kmh NW -- 29.95 in1014.2 mb 0.00 in0.0 mm 0.00 in0.0 mm 0.00 in0.0 mm
02:20 PM 31.7°F-0.2°C 25.6°F-3.6°C 78% 10.0 mph WNW16.1 kmh WNW -- 29.96 in1014.6 mb 0.00 in0.0 mm 0.00 in0.0 mm 0.00 in0.0 mm
02:25 PM 31.8°F-0.1°C 26.0°F-3.3°C 79% 8.0 mph W12.9 kmh W -- 29.96 in1014.6 mb 0.00 in0.0 mm 0.00 in0.0 mm 0.00 in0.0 mm
02:30 PM 31.6°F-0.2°C 25.5°F-3.6°C 78% 7.0 mph WNW11.3 kmh WNW 14.0 mph22.5 kmh 29.96 in1014.6 mb 0.00 in0.0 mm 0.00 in0.0 mm 0.00 in0.0 mm
02:35 PM 31.7°F-0.2°C 25.6°F-3.6°C 78% 8.0 mph WNW12.9 kmh WNW 14.0 mph22.5 kmh 29.96 in1014.6 mb 0.00 in0.0 mm 0.00 in0.0 mm 0.00 in0.0 mm
02:40 PM 31.7°F-0.2°C 25.6°F-3.6°C 78% 8.0 mph NW12.9 kmh NW -- 29.96 in1014.6 mb 0.00 in0.0 mm 0.00 in0.0 mm 0.00 in0.0 mm
02:45 PM 31.7°F-0.2°C 25.3°F-3.7°C 77% 10.0 mph WNW16.1 kmh WNW -- 29.96 in1014.6 mb 0.00 in0.0 mm 0.00 in0.0 mm 0.00 in0.0 mm
02:50 PM 32.0°F0.0°C 25.9°F-3.4°C 78% 10.0 mph W16.1 kmh W -- 29.96 in1014.6 mb 0.00 in0.0 mm 0.00 in0.0 mm 0.00 in0.0 mm
02:55 PM 31.9°F-0.1°C 25.5°F-3.6°C 77% 17.0 mph W27.4 kmh W -- 29.96 in1014.6 mb 0.00 in0.0 mm 0.00 in0.0 mm 0.00 in0.0 mm
03:00 PM 31.7°F-0.2°C 25.3°F-3.7°C 77% 9.0 mph WNW14.5 kmh WNW -- 29.96 in1014.6 mb 0.00 in0.0 mm 0.00 in0.0 mm 0.00 in0.0 mm
03:05 PM 31.6°F-0.2°C 25.2°F-3.8°C 77% 5.0 mph NW8.0 kmh NW -- 29.96 in1014.6 mb 0.00 in0.0 mm 0.00 in0.0 mm 0.00 in0.0 mm
03:10 PM 31.7°F-0.2°C 25.3°F-3.7°C 77% 7.0 mph W11.3 kmh W -- 29.96 in1014.6 mb 0.00 in0.0 mm 0.00 in0.0 mm 0.00 in0.0 mm
03:15 PM 31.6°F-0.2°C 24.9°F-3.9°C 76% 8.0 mph NW12.9 kmh NW -- 29.96 in1014.6 mb 0.00 in0.0 mm 0.00 in0.0 mm 0.00 in0.0 mm
03:20 PM 31.7°F-0.2°C 25.0°F-3.9°C 76% 6.0 mph NW9.7 kmh NW 17.0 mph27.4 kmh 29.96 in1014.6 mb 0.00 in0.0 mm 0.00 in0.0 mm 0.00 in0.0 mm
03:25 PM 31.7°F-0.2°C 25.0°F-3.9°C 76% 10.0 mph W16.1 kmh W 17.0 mph27.4 kmh 29.96 in1014.6 mb 0.00 in0.0 mm 0.00 in0.0 mm 0.00 in0.0 mm
03:30 PM 31.7°F-0.2°C 25.0°F-3.9°C 76% 10.0 mph WNW16.1 kmh WNW -- 29.96 in1014.6 mb 0.00 in0.0 mm 0.00 in0.0 mm 0.00 in0.0 mm
03:35 PM 31.6°F-0.2°C 24.9°F-3.9°C 76% 9.0 mph NW14.5 kmh NW -- 29.96 in1014.6 mb 0.00 in0.0 mm 0.00 in0.0 mm 0.00 in0.0 mm
03:40 PM 31.7°F-0.2°C 25.0°F-3.9°C 76% 6.0 mph NW9.7 kmh NW -- 29.96 in1014.6 mb 0.00 in0.0 mm 0.00 in0.0 mm 0.00 in0.0 mm
03:45 PM 31.7°F-0.2°C 25.0°F-3.9°C 76% 9.0 mph W14.5 kmh W -- 29.96 in1014.6 mb 0.00 in0.0 mm 0.00 in0.0 mm 0.00 in0.0 mm
03:50 PM 31.7°F-0.2°C 24.7°F-4.1°C 75% 9.0 mph NW14.5 kmh NW -- 29.96 in1014.6 mb 0.00 in0.0 mm 0.00 in0.0 mm 0.00 in0.0 mm
03:55 PM 31.8°F-0.1°C 24.8°F-4.0°C 75% 13.0 mph WNW20.9 kmh WNW -- 29.96 in1014.6 mb 0.00 in0.0 mm 0.00 in0.0 mm 0.00 in0.0 mm
04:00 PM 31.8°F-0.1°C 24.8°F-4.0°C 75% 8.0 mph NW12.9 kmh NW -- 29.96 in1014.6 mb 0.00 in0.0 mm 0.00 in0.0 mm 0.00 in0.0 mm
04:05 PM 31.7°F-0.2°C 24.4°F-4.2°C 74% 7.0 mph W11.3 kmh W -- 29.96 in1014.6 mb 0.00 in0.0 mm 0.00 in0.0 mm 0.00 in0.0 mm
04:10 PM 31.7°F-0.2°C 24.7°F-4.1°C 75% 9.0 mph W14.5 kmh W 17.0 mph27.4 kmh 29.96 in1014.6 mb 0.00 in0.0 mm 0.00 in0.0 mm 0.00 in0.0 mm
04:15 PM 31.9°F-0.1°C 24.9°F-3.9°C 75% 5.0 mph NW8.0 kmh NW 17.0 mph27.4 kmh 29.96 in1014.6 mb 0.00 in0.0 mm 0.00 in0.0 mm 0.00 in0.0 mm
04:20 PM 31.8°F-0.1°C 24.5°F-4.2°C 74% 5.0 mph W8.0 kmh W -- 29.96 in1014.6 mb 0.00 in0.0 mm 0.00 in0.0 mm 0.00 in0.0 mm
04:25 PM 31.8°F-0.1°C 24.5°F-4.2°C 74% 5.0 mph W8.0 kmh W -- 29.96 in1014.6 mb 0.00 in0.0 mm 0.00 in0.0 mm 0.00 in0.0 mm
04:30 PM 31.7°F-0.2°C 24.4°F-4.2°C 74% 12.0 mph W19.3 kmh W -- 29.96 in1014.6 mb 0.00 in0.0 mm 0.00 in0.0 mm 0.00 in0.0 mm
04:35 PM 31.7°F-0.2°C 24.4°F-4.2°C 74% 8.0 mph NW12.9 kmh NW -- 29.97 in1014.9 mb 0.00 in0.0 mm 0.00 in0.0 mm 0.00 in0.0 mm
04:40 PM 31.6°F-0.2°C 24.3°F-4.3°C 74% 9.0 mph WNW14.5 kmh WNW -- 29.97 in1014.9 mb 0.00 in0.0 mm 0.00 in0.0 mm 0.00 in0.0 mm
04:45 PM 31.5°F-0.3°C 24.2°F-4.3°C 74% 8.0 mph WNW12.9 kmh WNW -- 29.97 in1014.9 mb 0.00 in0.0 mm 0.00 in0.0 mm 0.00 in0.0 mm
04:50 PM 31.4°F-0.3°C 24.1°F-4.4°C 74% 9.0 mph W14.5 kmh W -- 29.97 in1014.9 mb 0.00 in0.0 mm 0.00 in0.0 mm 0.00 in0.0 mm
04:55 PM 31.2°F-0.4°C 23.9°F-4.5°C 74% 8.0 mph WNW12.9 kmh WNW -- 29.97 in1014.9 mb 0.00 in0.0 mm 0.00 in0.0 mm 0.00 in0.0 mm
05:00 PM 31.1°F-0.5°C 24.1°F-4.4°C 75% 7.0 mph WNW11.3 kmh WNW 15.0 mph24.1 kmh 29.97 in1014.9 mb 0.00 in0.0 mm 0.00 in0.0 mm 0.00 in0.0 mm
05:05 PM 31.0°F-0.6°C 24.3°F-4.3°C 76% 13.0 mph WNW20.9 kmh WNW 15.0 mph24.1 kmh 29.98 in1015.2 mb 0.00 in0.0 mm 0.00 in0.0 mm 0.00 in0.0 mm
05:10 PM 30.8°F-0.7°C 24.5°F-4.2°C 77% 10.0 mph W16.1 kmh W -- 29.98 in1015.2 mb 0.00 in0.0 mm 0.00 in0.0 mm 0.00 in0.0 mm
05:15 PM 30.6°F-0.8°C 24.6°F-4.1°C 78% 10.0 mph W16.1 kmh W -- 29.98 in1015.2 mb 0.00 in0.0 mm 0.00 in0.0 mm 0.00 in0.0 mm
05:20 PM 30.5°F-0.8°C 24.8°F-4.0°C 79% 7.0 mph WNW11.3 kmh WNW -- 29.98 in1015.2 mb 0.00 in0.0 mm 0.00 in0.0 mm 0.00 in0.0 mm
05:25 PM 30.3°F-0.9°C 24.3°F-4.3°C 78% 7.0 mph NW11.3 kmh NW -- 29.98 in1015.2 mb 0.00 in0.0 mm 0.00 in0.0 mm 0.00 in0.0 mm
05:30 PM 30.2°F-1.0°C 24.5°F-4.2°C 79% 10.0 mph W16.1 kmh W -- 29.98 in1015.2 mb 0.00 in0.0 mm 0.00 in0.0 mm 0.00 in0.0 mm
05:35 PM 30.2°F-1.0°C 24.5°F-4.2°C 79% 9.0 mph NW14.5 kmh NW -- 29.98 in1015.2 mb 0.00 in0.0 mm 0.00 in0.0 mm 0.00 in0.0 mm
05:40 PM 30.1°F-1.1°C 24.4°F-4.2°C 79% 13.0 mph WNW20.9 kmh WNW -- 29.98 in1015.2 mb 0.00 in0.0 mm 0.00 in0.0 mm 0.00 in0.0 mm
05:45 PM 30.1°F-1.1°C 24.4°F-4.2°C 79% 13.0 mph NW20.9 kmh NW -- 29.98 in1015.2 mb 0.00 in0.0 mm 0.00 in0.0 mm 0.00 in0.0 mm
05:50 PM 30.0°F-1.1°C 24.3°F-4.3°C 79% 3.0 mph NW4.8 kmh NW 15.0 mph24.1 kmh 29.98 in1015.2 mb 0.00 in0.0 mm 0.00 in0.0 mm 0.00 in0.0 mm
05:55 PM 29.9°F-1.2°C 24.2°F-4.3°C 79% 10.0 mph NW16.1 kmh NW 15.0 mph24.1 kmh 29.98 in1015.2 mb 0.00 in0.0 mm 0.00 in0.0 mm 0.00 in0.0 mm
06:00 PM 29.9°F-1.2°C 24.2°F-4.3°C 79% 7.0 mph WNW11.3 kmh WNW -- 29.98 in1015.2 mb 0.00 in0.0 mm 0.00 in0.0 mm 0.00 in0.0 mm
06:05 PM 29.9°F-1.2°C 24.5°F-4.2°C 80% 5.0 mph NW8.0 kmh NW -- 29.98 in1015.2 mb 0.00 in0.0 mm 0.00 in0.0 mm 0.00 in0.0 mm
06:10 PM 29.8°F-1.2°C 24.1°F-4.4°C 79% 5.0 mph W8.0 kmh W -- 29.98 in1015.2 mb 0.00 in0.0 mm 0.00 in0.0 mm 0.00 in0.0 mm
06:15 PM 29.8°F-1.2°C 24.1°F-4.4°C 79% 9.0 mph W14.5 kmh W -- 29.98 in1015.2 mb 0.00 in0.0 mm 0.00 in0.0 mm 0.00 in0.0 mm
06:20 PM 29.8°F-1.2°C 23.8°F-4.6°C 78% 6.0 mph W9.7 kmh W -- 29.98 in1015.2 mb 0.00 in0.0 mm 0.00 in0.0 mm 0.00 in0.0 mm
06:25 PM 29.8°F-1.2°C 23.8°F-4.6°C 78% 10.0 mph WSW16.1 kmh WSW -- 29.98 in1015.2 mb 0.00 in0.0 mm 0.00 in0.0 mm 0.00 in0.0 mm
06:30 PM 29.8°F-1.2°C 23.5°F-4.7°C 77% 4.0 mph NW6.4 kmh NW -- 29.98 in1015.2 mb 0.00 in0.0 mm 0.00 in0.0 mm 0.00 in0.0 mm
06:35 PM 29.7°F-1.3°C 23.4°F-4.8°C 77% 8.0 mph WSW12.9 kmh WSW -- 29.98 in1015.2 mb 0.00 in0.0 mm 0.00 in0.0 mm 0.00 in0.0 mm
06:40 PM 29.7°F-1.3°C 23.1°F-4.9°C 76% 4.0 mph NW6.4 kmh NW 13.0 mph20.9 kmh 29.98 in1015.2 mb 0.00 in0.0 mm 0.00 in0.0 mm 0.00 in0.0 mm
06:45 PM 29.6°F-1.3°C 23.0°F-5.0°C 76% 5.0 mph NW8.0 kmh NW 13.0 mph20.9 kmh 29.98 in1015.2 mb 0.00 in0.0 mm 0.00 in0.0 mm 0.00 in0.0 mm
06:50 PM 29.6°F-1.3°C 23.0°F-5.0°C 76% 10.0 mph WNW16.1 kmh WNW -- 29.98 in1015.2 mb 0.00 in0.0 mm 0.00 in0.0 mm 0.00 in0.0 mm
06:55 PM 29.5°F-1.4°C 22.9°F-5.1°C 76% 6.0 mph WNW9.7 kmh WNW -- 29.98 in1015.2 mb 0.00 in0.0 mm 0.00 in0.0 mm 0.00 in0.0 mm
07:00 PM 29.4°F-1.4°C 22.8°F-5.1°C 76% 6.0 mph NW9.7 kmh NW -- 29.98 in1015.2 mb 0.00 in0.0 mm 0.00 in0.0 mm 0.00 in0.0 mm
07:05 PM 29.4°F-1.4°C 22.8°F-5.1°C 76% 7.0 mph NW11.3 kmh NW -- 29.98 in1015.2 mb 0.00 in0.0 mm 0.00 in0.0 mm 0.00 in0.0 mm
07:10 PM 29.3°F-1.5°C 22.7°F-5.2°C 76% 4.0 mph NW6.4 kmh NW -- 29.99 in1015.6 mb 0.00 in0.0 mm 0.00 in0.0 mm 0.00 in0.0 mm
07:15 PM 29.3°F-1.5°C 23.0°F-5.0°C 77% 5.0 mph NW8.0 kmh NW -- 29.99 in1015.6 mb 0.00 in0.0 mm 0.00 in0.0 mm 0.00 in0.0 mm
07:20 PM 29.2°F-1.6°C 22.9°F-5.1°C 77% 6.0 mph WSW9.7 kmh WSW -- 29.99 in1015.6 mb 0.00 in0.0 mm 0.00 in0.0 mm 0.00 in0.0 mm
07:25 PM 29.3°F-1.5°C 22.7°F-5.2°C 76% 6.0 mph WNW9.7 kmh WNW -- 29.99 in1015.6 mb 0.00 in0.0 mm 0.00 in0.0 mm 0.00 in0.0 mm
07:30 PM 29.2°F-1.6°C 22.6°F-5.2°C 76% 5.0 mph WNW8.0 kmh WNW 15.0 mph24.1 kmh 29.99 in1015.6 mb 0.00 in0.0 mm 0.00 in0.0 mm 0.00 in0.0 mm
07:35 PM 29.2°F-1.6°C 22.6°F-5.2°C 76% 8.0 mph W12.9 kmh W 15.0 mph24.1 kmh 29.98 in1015.2 mb 0.00 in0.0 mm 0.00 in0.0 mm 0.00 in0.0 mm
07:40 PM 29.2°F-1.6°C 22.6°F-5.2°C 76% 7.0 mph WNW11.3 kmh WNW -- 29.99 in1015.6 mb 0.00 in0.0 mm 0.00 in0.0 mm 0.00 in0.0 mm
07:45 PM 29.1°F-1.6°C 22.5°F-5.3°C 76% 6.0 mph W9.7 kmh W -- 29.99 in1015.6 mb 0.00 in0.0 mm 0.00 in0.0 mm 0.00 in0.0 mm
07:50 PM 29.1°F-1.6°C 22.8°F-5.1°C 77% 4.0 mph WNW6.4 kmh WNW -- 29.99 in1015.6 mb 0.00 in0.0 mm 0.00 in0.0 mm 0.00 in0.0 mm
07:55 PM 29.0°F-1.7°C 22.7°F-5.2°C 77% 7.0 mph WNW11.3 kmh WNW -- 29.99 in1015.6 mb 0.00 in0.0 mm 0.00 in0.0 mm 0.00 in0.0 mm
08:00 PM 28.9°F-1.7°C 22.6°F-5.2°C 77% 6.0 mph NW9.7 kmh NW -- 29.99 in1015.6 mb 0.00 in0.0 mm 0.00 in0.0 mm 0.00 in0.0 mm
08:05 PM 28.9°F-1.7°C 22.9°F-5.1°C 78% 5.0 mph WNW8.0 kmh WNW -- 29.99 in1015.6 mb 0.00 in0.0 mm 0.00 in0.0 mm 0.00 in0.0 mm
08:10 PM 28.9°F-1.7°C 22.9°F-5.1°C 78% 5.0 mph WNW8.0 kmh WNW -- 30.00 in1015.9 mb 0.00 in0.0 mm 0.00 in0.0 mm 0.00 in0.0 mm
08:15 PM 28.9°F-1.7°C 22.9°F-5.1°C 78% 6.0 mph WNW9.7 kmh WNW -- 29.99 in1015.6 mb 0.00 in0.0 mm 0.00 in0.0 mm 0.00 in0.0 mm
08:20 PM 28.8°F-1.8°C 22.8°F-5.1°C 78% 3.0 mph W4.8 kmh W 10.0 mph16.1 kmh 30.00 in1015.9 mb 0.00 in0.0 mm 0.00 in0.0 mm 0.00 in0.0 mm
08:25 PM 28.8°F-1.8°C 22.8°F-5.1°C 78% 7.0 mph NW11.3 kmh NW 10.0 mph16.1 kmh 30.00 in1015.9 mb 0.00 in0.0 mm 0.00 in0.0 mm 0.00 in0.0 mm
08:30 PM 28.7°F-1.8°C 22.7°F-5.2°C 78% 5.0 mph WNW8.0 kmh WNW -- 30.00 in1015.9 mb 0.00 in0.0 mm 0.00 in0.0 mm 0.00 in0.0 mm
08:35 PM 28.7°F-1.8°C 23.0°F-5.0°C 79% 6.0 mph WNW9.7 kmh WNW -- 30.00 in1015.9 mb 0.00 in0.0 mm 0.00 in0.0 mm 0.00 in0.0 mm
08:40 PM 28.7°F-1.8°C 22.7°F-5.2°C 78% 7.0 mph NW11.3 kmh NW -- 29.99 in1015.6 mb 0.00 in0.0 mm 0.00 in0.0 mm 0.00 in0.0 mm
08:45 PM 28.7°F-1.8°C 22.7°F-5.2°C 78% 8.0 mph WNW12.9 kmh WNW -- 30.00 in1015.9 mb 0.00 in0.0 mm 0.00 in0.0 mm 0.00 in0.0 mm
08:50 PM 28.7°F-1.8°C 22.7°F-5.2°C 78% 5.0 mph W8.0 kmh W -- 30.00 in1015.9 mb 0.00 in0.0 mm 0.00 in0.0 mm 0.00 in0.0 mm
08:55 PM 28.7°F-1.8°C 22.7°F-5.2°C 78% 7.0 mph W11.3 kmh W -- 30.00 in1015.9 mb 0.00 in0.0 mm 0.00 in0.0 mm 0.00 in0.0 mm
09:00 PM 28.7°F-1.8°C 22.7°F-5.2°C 78% 4.0 mph WNW6.4 kmh WNW -- 30.00 in1015.9 mb 0.00 in0.0 mm 0.00 in0.0 mm 0.00 in0.0 mm
09:05 PM 28.7°F-1.8°C 22.7°F-5.2°C 78% 6.0 mph WNW9.7 kmh WNW -- 30.00 in1015.9 mb 0.00 in0.0 mm 0.00 in0.0 mm 0.00 in0.0 mm
09:10 PM 28.6°F-1.9°C 22.6°F-5.2°C 78% 5.0 mph W8.0 kmh W 13.0 mph20.9 kmh 30.00 in1015.9 mb 0.00 in0.0 mm 0.00 in0.0 mm 0.00 in0.0 mm
09:15 PM 28.5°F-1.9°C 22.5°F-5.3°C 78% 6.0 mph NW9.7 kmh NW 13.0 mph20.9 kmh 30.00 in1015.9 mb 0.00 in0.0 mm 0.00 in0.0 mm 0.00 in0.0 mm
09:20 PM 28.4°F-2.0°C 22.4°F-5.3°C 78% 6.0 mph NW9.7 kmh NW -- 30.00 in1015.9 mb 0.00 in0.0 mm 0.00 in0.0 mm 0.00 in0.0 mm
09:25 PM 28.3°F-2.1°C 22.3°F-5.4°C 78% 4.0 mph WNW6.4 kmh WNW -- 30.00 in1015.9 mb 0.00 in0.0 mm 0.00 in0.0 mm 0.00 in0.0 mm
09:30 PM 28.1°F-2.2°C 21.8°F-5.7°C 77% 5.0 mph WNW8.0 kmh WNW -- 30.00 in1015.9 mb 0.00 in0.0 mm 0.00 in0.0 mm 0.00 in0.0 mm
09:35 PM 28.0°F-2.2°C 21.7°F-5.7°C 77% 4.0 mph NW6.4 kmh NW -- 30.00 in1015.9 mb 0.00 in0.0 mm 0.00 in0.0 mm 0.00 in0.0 mm
09:40 PM 27.8°F-2.3°C 21.2°F-6.0°C 76% 8.0 mph WNW12.9 kmh WNW -- 30.00 in1015.9 mb 0.00 in0.0 mm 0.00 in0.0 mm 0.00 in0.0 mm
09:45 PM 27.5°F-2.5°C 20.9°F-6.2°C 76% 8.0 mph WNW12.9 kmh WNW -- 30.00 in1015.9 mb 0.00 in0.0 mm 0.00 in0.0 mm 0.00 in0.0 mm
09:50 PM 27.3°F-2.6°C 20.8°F-6.2°C 76% 5.0 mph WNW8.0 kmh WNW -- 30.00 in1015.9 mb 0.00 in0.0 mm 0.00 in0.0 mm 0.00 in0.0 mm
09:55 PM 27.2°F-2.7°C 20.7°F-6.3°C 76% 8.0 mph WNW12.9 kmh WNW -- 30.00 in1015.9 mb 0.00 in0.0 mm 0.00 in0.0 mm 0.00 in0.0 mm
10:01 PM 27.0°F-2.8°C 20.8°F-6.2°C 77% 4.0 mph WNW6.4 kmh WNW 8.0 mph12.9 kmh 30.00 in1015.9 mb 0.00 in0.0 mm 0.00 in0.0 mm 0.00 in0.0 mm
10:05 PM 26.8°F-2.9°C 20.6°F-6.3°C 77% 6.0 mph NW9.7 kmh NW 8.0 mph12.9 kmh 29.99 in1015.6 mb 0.00 in0.0 mm 0.00 in0.0 mm 0.00 in0.0 mm
10:10 PM 26.8°F-2.9°C 20.6°F-6.3°C 77% 6.0 mph W9.7 kmh W -- 29.99 in1015.6 mb 0.00 in0.0 mm 0.00 in0.0 mm 0.00 in0.0 mm
10:15 PM 26.7°F-2.9°C 20.5°F-6.4°C 77% 6.0 mph WNW9.7 kmh WNW -- 29.99 in1015.6 mb 0.00 in0.0 mm 0.00 in0.0 mm 0.00 in0.0 mm
10:20 PM 26.5°F-3.1°C 20.3°F-6.5°C 77% 3.0 mph W4.8 kmh W -- 29.99 in1015.6 mb 0.00 in0.0 mm 0.00 in0.0 mm 0.00 in0.0 mm
10:25 PM 26.4°F-3.1°C 20.2°F-6.6°C 77% 5.0 mph WNW8.0 kmh WNW -- 29.99 in1015.6 mb 0.00 in0.0 mm 0.00 in0.0 mm 0.00 in0.0 mm
10:30 PM 26.3°F-3.2°C 20.1°F-6.6°C 77% 4.0 mph WNW6.4 kmh WNW -- 29.99 in1015.6 mb 0.00 in0.0 mm 0.00 in0.0 mm 0.00 in0.0 mm
10:35 PM 26.1°F-3.3°C 19.9°F-6.7°C 77% 5.0 mph W8.0 kmh W -- 29.99 in1015.6 mb 0.00 in0.0 mm 0.00 in0.0 mm 0.00 in0.0 mm
10:40 PM 25.8°F-3.4°C 19.6°F-6.9°C 77% 3.0 mph W4.8 kmh W -- 29.99 in1015.6 mb 0.00 in0.0 mm 0.00 in0.0 mm 0.00 in0.0 mm
10:45 PM 24.5°F-4.2°C 19.2°F-7.1°C 80% 7.0 mph WNW11.3 kmh WNW -- 29.99 in1015.6 mb 0.00 in0.0 mm 0.00 in0.0 mm 0.00 in0.0 mm
10:50 PM 25.4°F-3.7°C 19.5°F-6.9°C 78% 4.0 mph WSW6.4 kmh WSW 8.0 mph12.9 kmh 29.99 in1015.6 mb 0.00 in0.0 mm 0.00 in0.0 mm 0.00 in0.0 mm
10:55 PM 25.3°F-3.7°C 19.4°F-7.0°C 78% 5.0 mph W8.0 kmh W 8.0 mph12.9 kmh 29.98 in1015.2 mb 0.00 in0.0 mm 0.00 in0.0 mm 0.00 in0.0 mm
11:00 PM 25.2°F-3.8°C 19.3°F-7.1°C 78% 5.0 mph W8.0 kmh W -- 29.98 in1015.2 mb 0.00 in0.0 mm 0.00 in0.0 mm 0.00 in0.0 mm
11:05 PM 25.2°F-3.8°C 19.3°F-7.1°C 78% 5.0 mph W8.0 kmh W -- 29.98 in1015.2 mb 0.00 in0.0 mm 0.00 in0.0 mm 0.00 in0.0 mm
11:10 PM 25.1°F-3.8°C 19.2°F-7.1°C 78% 4.0 mph W6.4 kmh W -- 29.98 in1015.2 mb 0.00 in0.0 mm 0.00 in0.0 mm 0.00 in0.0 mm
11:15 PM 24.8°F-4.0°C 18.9°F-7.3°C 78% 3.0 mph W4.8 kmh W -- 29.98 in1015.2 mb 0.00 in0.0 mm 0.00 in0.0 mm 0.00 in0.0 mm
11:20 PM 24.5°F-4.2°C 18.6°F-7.4°C 78% 3.0 mph W4.8 kmh W -- 29.98 in1015.2 mb 0.00 in0.0 mm 0.00 in0.0 mm 0.00 in0.0 mm
11:25 PM 24.4°F-4.2°C 18.5°F-7.5°C 78% 3.0 mph W4.8 kmh W -- 29.98 in1015.2 mb 0.00 in0.0 mm 0.00 in0.0 mm 0.00 in0.0 mm
11:30 PM 24.2°F-4.3°C 18.6°F-7.4°C 79% 3.0 mph W4.8 kmh W -- 29.98 in1015.2 mb 0.00 in0.0 mm 0.00 in0.0 mm 0.00 in0.0 mm
11:35 PM 24.0°F-4.4°C 18.5°F-7.5°C 79% 3.0 mph W4.8 kmh W -- 29.98 in1015.2 mb 0.00 in0.0 mm 0.00 in0.0 mm 0.00 in0.0 mm
11:40 PM 23.9°F-4.5°C 18.4°F-7.6°C 79% 2.0 mph WSW3.2 kmh WSW 6.0 mph9.7 kmh 29.98 in1015.2 mb 0.00 in0.0 mm 0.00 in0.0 mm 0.00 in0.0 mm
11:45 PM 23.8°F-4.6°C 18.3°F-7.6°C 79% 3.0 mph W4.8 kmh W 6.0 mph9.7 kmh 29.98 in1015.2 mb 0.00 in0.0 mm 0.00 in0.0 mm 0.00 in0.0 mm
11:50 PM 23.8°F-4.6°C 18.5°F-7.5°C 80% 4.0 mph WSW6.4 kmh WSW -- 29.98 in1015.2 mb 0.00 in0.0 mm 0.00 in0.0 mm 0.00 in0.0 mm
11:55 PM 23.9°F-4.5°C 18.6°F-7.4°C 80% 3.0 mph W4.8 kmh W -- 29.97 in1014.9 mb 0.00 in0.0 mm 0.00 in0.0 mm 0.00 in0.0 mm